WetterOnline ( https://www.wetteronline.de )

Wetter aktuell Admannshagen-Bargeshagen

Aktuelles Wetter: Rostock-Warnemünde (10m)

6-stündlich | Neueste Meldungen
Ortszeit Temperatur Wetter
Di, 12.11. 19:00 5.1° C wolkenlos
Di, 12.11. 13:00 7.3° C wolkenlos
Di, 12.11. 7:00 3.0° C bedeckt
Di, 12.11. 1:00 3.3° C bewölkt
Mo, 11.11. 19:00 2.2° C wolkig
Mo, 11.11. 13:00 4.0° C bedeckt
Mo, 11.11. 7:00 1.0° C bedeckt
Mo, 11.11. 1:00 2.5° C wolkenlos
Ortszeit Temperatur Wetter
Di, 12.11. 21:30 4.8° C bedeckt
Di, 12.11. 21:20 4.8° C bedeckt
Di, 12.11. 21:10 4.8° C leichter Regen
Di, 12.11. 21:00 4.8° C bewölkt
Di, 12.11. 20:50 4.8° C bewölkt
Di, 12.11. 20:40 4.6° C wolkig
Di, 12.11. 20:30 4.6° C leicht bewölkt
Di, 12.11. 20:00 4.6° C wolkig
Ortszeit Relative Feuchte Sichtweite
Di, 12.11. 19:00 78% 40 km
Di, 12.11. 13:00 68% 40 km
Di, 12.11. 7:00 85% 16 km
Di, 12.11. 1:00 83% 21 km
Mo, 11.11. 19:00 88% 16 km
Mo, 11.11. 13:00 88% 13 km
Mo, 11.11. 7:00 96% 5.0 km
Mo, 11.11. 1:00 92% 10 km
Ortszeit Relative Feuchte Sichtweite
Di, 12.11. 21:30 83% 35 km
Di, 12.11. 21:20 83% -
Di, 12.11. 21:10 83% -
Di, 12.11. 21:00 81% 30 km
Di, 12.11. 20:50 81% -
Di, 12.11. 20:40 82% -
Di, 12.11. 20:30 82% 30 km
Di, 12.11. 20:00 83% 30 km
Ortszeit Niederschlagsmenge Niederschlagsart
Di, 12.11. 19:00 0.0 l/m2 in 12 Std. -
Di, 12.11. 13:00 0.0 l/m2 in 6 Std. -
Di, 12.11. 7:00 0.1 l/m2 in 12 Std. Regen
Di, 12.11. 1:00 0.0 l/m2 in 6 Std. -
Mo, 11.11. 19:00 0.0 l/m2 in 12 Std. -
Mo, 11.11. 13:00 0.0 l/m2 in 6 Std. -
Mo, 11.11. 7:00 0.0 l/m2 in 12 Std. -
Mo, 11.11. 1:00 0.0 l/m2 in 6 Std. -
Ortszeit Niederschlagsmenge Niederschlagsart
Di, 12.11. 21:30 0.1 l/m2 in 1 Std. Schneeregen
Di, 12.11. 21:20 keine Meldung -
Di, 12.11. 21:10 keine Meldung -
Di, 12.11. 21:00 0.0 l/m2 in 1 Std. -
Di, 12.11. 20:50 keine Meldung -
Di, 12.11. 20:40 keine Meldung -
Di, 12.11. 20:30 0.0 l/m2 in 1 Std. -
Di, 12.11. 20:00 0.0 l/m2 in 1 Std. -
Ortszeit Stärke Spitze Richtung
km/h Bft. km/h Grad Sektor
Di, 12.11. 19:00 14 3 32 150° SO
Di, 12.11. 13:00 20 4 33 180° S
Di, 12.11. 7:00 11 2 37 170° S
Di, 12.11. 1:00 15 3 39 160° S
Mo, 11.11. 19:00 14 3 40 160° S
Mo, 11.11. 13:00 14 3 36 170° S
Mo, 11.11. 7:00 9 2 22 180° S
Mo, 11.11. 1:00 7 2 22 190° S
Ortszeit Stärke Spitze Richtung
km/h Bft. km/h Grad Sektor
Di, 12.11. 21:30 14 3 32 150° SO
Di, 12.11. 21:20 14 3 - 150° SO
Di, 12.11. 21:10 13 3 - 160° S
Di, 12.11. 21:00 14 3 36 160° S
Di, 12.11. 20:50 14 3 - 160° S
Di, 12.11. 20:40 14 3 - 160° S
Di, 12.11. 20:30 14 3 29 150° SO
Di, 12.11. 20:00 11 2 29 160° S
Ortszeit Untergrenze Bedeckung Gattung
total tief tief mittel hoch
Di, 12.11. 19:00 - 0/8 0/8 - - -
Di, 12.11. 13:00 - 0/8 0/8 - - -
Di, 12.11. 7:00 1110 m 8/8 8/8 - - -
Di, 12.11. 1:00 3000 m 8/8 7/8 - - -
Mo, 11.11. 19:00 5700 m 6/8 3/8 - - -
Mo, 11.11. 13:00 180 m 8/8 8/8 - - -
Mo, 11.11. 7:00 60 m 8/8 8/8 - - -
Mo, 11.11. 1:00 - 0/8 0/8 - - -
Ortszeit Bedeckungsgrad in Achtel und Wolkenuntergrenze
Di, 12.11. 21:30 1(690m) 7(1320m) 8(1800m)
Di, 12.11. 21:20 1(690m) 7(1320m) 8(1800m)
Di, 12.11. 21:10 2(630m) 7(1320m) 8(1500m)
Di, 12.11. 21:00 1(600m) 7(1500m) 7(1800m)
Di, 12.11. 20:50 1(600m) 2(1260m) 7(1500m)
Di, 12.11. 20:40 5(1800m)
Di, 12.11. 20:30 2(1800m)
Di, 12.11. 20:00 5(1800m)
Ortszeit Luftdruck NN (hPa) Tendenz (hPa in 3 Std.)
Di, 12.11. 19:00 1003 - 0,4
Di, 12.11. 13:00 1003 - 0,5
Di, 12.11. 7:00 1003 - 0,2
Di, 12.11. 1:00 1004 - 1,2
Mo, 11.11. 19:00 1006 - 0,7
Mo, 11.11. 13:00 1010 - 1,1
Mo, 11.11. 7:00 1012 - 1,3
Mo, 11.11. 1:00 1014 - 0,8
Ortszeit Luftdruck NN (hPa) Tendenz (hPa in 3 Std.)
Di, 12.11. 21:30 1003 - 0,2
Di, 12.11. 21:20 1003 keine Meldung
Di, 12.11. 21:10 1003 keine Meldung
Di, 12.11. 21:00 1004 0,0
Di, 12.11. 20:50 1004 keine Meldung
Di, 12.11. 20:40 1003 keine Meldung
Di, 12.11. 20:30 1003 - 0,3
Di, 12.11. 20:00 1003 - 0,1
Ortszeit Schneehöhe (cm)
Di, 12.11. 19:00 0
Di, 12.11. 13:00 0
Di, 12.11. 7:00 0
Di, 12.11. 1:00 0
Mo, 11.11. 19:00 0
Mo, 11.11. 13:00 0
Mo, 11.11. 7:00 0
Mo, 11.11. 1:00 0
Ortszeit Schneehöhe (cm)
Di, 12.11. 21:30 0
Di, 12.11. 21:20 0
Di, 12.11. 21:10 0
Di, 12.11. 21:00 0
Di, 12.11. 20:50 0
Di, 12.11. 20:40 0
Di, 12.11. 20:30 0
Di, 12.11. 20:00 0
Link zu dieser Seite / Seite empfehlen

Das Wetter in ...